createdAt,value
2019-03-11T00:00:31.970Z,4.71
2019-03-11T00:01:12.531Z,4.73
2019-03-11T00:01:53.115Z,4.73
2019-03-11T00:02:33.677Z,4.73
2019-03-11T00:03:14.274Z,4.63
2019-03-11T00:03:54.883Z,4.67
2019-03-11T00:04:35.528Z,4.71
2019-03-11T00:05:16.090Z,4.66
2019-03-11T00:05:56.661Z,4.77
2019-03-11T00:06:37.252Z,4.67
2019-03-11T00:07:17.909Z,4.59
2019-03-11T00:07:58.651Z,4.62
2019-03-11T00:08:39.292Z,4.63
2019-03-11T00:09:19.861Z,4.67
2019-03-11T00:10:00.497Z,4.68
2019-03-11T00:10:41.008Z,4.52
2019-03-11T00:11:21.614Z,4.63
2019-03-11T00:12:02.235Z,4.63
2019-03-11T00:12:42.810Z,4.67
2019-03-11T00:13:23.355Z,4.67
2019-03-11T00:14:03.912Z,4.63
2019-03-11T00:14:44.454Z,4.73
2019-03-11T00:15:25.056Z,4.71
2019-03-11T00:16:05.951Z,4.66
2019-03-11T00:16:46.633Z,4.71
2019-03-11T00:17:27.325Z,4.6
2019-03-11T00:18:07.971Z,4.55
2019-03-11T00:18:48.545Z,4.63
2019-03-11T00:19:29.152Z,4.67
2019-03-11T00:20:09.702Z,4.7
2019-03-11T00:20:50.287Z,4.63
2019-03-11T00:21:30.845Z,4.71
2019-03-11T00:22:11.402Z,4.6
2019-03-11T00:22:51.972Z,4.6
2019-03-11T00:23:32.580Z,4.63
2019-03-11T00:24:13.155Z,4.68
2019-03-11T00:24:53.710Z,4.53
2019-03-11T00:25:34.280Z,4.5
2019-03-11T00:26:14.849Z,4.53
2019-03-11T00:26:55.394Z,4.56
2019-03-11T00:27:35.951Z,4.59
2019-03-11T00:28:16.512Z,4.52
2019-03-11T00:28:57.087Z,4.49
2019-03-11T00:29:37.685Z,4.55
2019-03-11T00:30:18.270Z,4.53
2019-03-11T00:30:58.825Z,4.53
2019-03-11T00:31:39.403Z,4.52
2019-03-11T00:32:19.982Z,4.53
2019-03-11T00:33:00.582Z,4.53
2019-03-11T00:33:41.210Z,4.53
2019-03-11T00:34:21.791Z,4.52
2019-03-11T00:35:02.357Z,4.52
2019-03-11T00:35:42.919Z,4.56
2019-03-11T00:36:23.500Z,4.49
2019-03-11T00:37:04.051Z,4.52
2019-03-11T00:37:44.762Z,4.52
2019-03-11T00:38:25.340Z,4.52
2019-03-11T00:39:05.902Z,4.55
2019-03-11T00:39:46.489Z,4.53
2019-03-11T00:40:27.126Z,4.5
2019-03-11T00:41:07.700Z,4.5
2019-03-11T00:41:48.273Z,4.48
2019-03-11T00:42:28.824Z,4.45
2019-03-11T00:43:09.387Z,4.38
2019-03-11T00:43:49.970Z,4.44
2019-03-11T00:44:30.529Z,4.45
2019-03-11T00:45:11.091Z,4.48
2019-03-11T00:45:51.711Z,4.45
2019-03-11T00:46:32.264Z,4.44
2019-03-11T00:47:12.822Z,4.42
2019-03-11T00:48:01.298Z,4.44
2019-03-11T00:48:33.944Z,4.45
2019-03-11T00:49:14.498Z,4.59
2019-03-11T00:49:55.058Z,4.53
2019-03-11T00:50:35.622Z,4.53
2019-03-11T00:51:16.192Z,4.5
2019-03-11T00:51:56.772Z,4.59
2019-03-11T00:52:37.384Z,4.58
2019-03-11T00:53:17.886Z,4.58
2019-03-11T00:53:58.454Z,4.58
2019-03-11T00:54:39.028Z,4.67
2019-03-11T00:55:19.632Z,4.58
2019-03-11T00:56:00.192Z,4.66
2019-03-11T00:56:40.741Z,4.58
2019-03-11T00:57:21.307Z,4.7
2019-03-11T00:58:01.885Z,4.63
2019-03-11T00:58:42.483Z,4.7
2019-03-11T00:59:23.034Z,4.74
2019-03-11T01:00:03.605Z,4.66
2019-03-11T01:00:44.171Z,4.7
2019-03-11T01:01:24.722Z,4.59
2019-03-11T01:02:05.358Z,4.5
2019-03-11T01:02:45.907Z,4.66
2019-03-11T01:03:26.477Z,4.63
2019-03-11T01:04:07.032Z,4.63
2019-03-11T01:04:47.590Z,4.67
2019-03-11T01:05:28.161Z,4.68
2019-03-11T01:06:08.751Z,4.62
2019-03-11T01:06:49.299Z,4.6
2019-03-11T01:07:29.885Z,4.68
2019-03-11T01:08:10.439Z,4.63
2019-03-11T01:08:51.007Z,4.63
2019-03-11T01:09:31.570Z,4.62
2019-03-11T01:10:12.145Z,4.59
2019-03-11T01:10:52.703Z,4.67
2019-03-11T01:11:33.256Z,4.63
2019-03-11T01:12:13.816Z,4.68
2019-03-11T01:12:54.368Z,4.66
2019-03-11T01:13:34.952Z,4.7
2019-03-11T01:14:15.490Z,4.56
2019-03-11T01:14:56.081Z,4.62
2019-03-11T01:15:36.699Z,4.63
2019-03-11T01:16:17.289Z,4.68
2019-03-11T01:16:57.851Z,4.66
2019-03-11T01:17:38.417Z,4.62
2019-03-11T01:18:18.959Z,4.52
2019-03-11T01:18:59.526Z,4.52
2019-03-11T01:19:40.073Z,4.52
2019-03-11T01:20:20.658Z,4.42
2019-03-11T01:21:01.221Z,4.42
2019-03-11T01:21:41.795Z,4.41
2019-03-11T01:22:22.306Z,4.35
2019-03-11T01:23:02.855Z,4.32
2019-03-11T01:23:43.428Z,4.44
2019-03-11T01:24:23.983Z,4.32
2019-03-11T01:25:05.026Z,4.3
2019-03-11T01:25:45.116Z,4.34
2019-03-11T01:26:25.679Z,4.31
2019-03-11T01:27:06.238Z,4.34
2019-03-11T01:27:46.790Z,4.2
2019-03-11T01:28:27.345Z,4.2
2019-03-11T01:29:07.938Z,4.22
2019-03-11T01:29:48.508Z,4.28
2019-03-11T01:30:29.078Z,4.23
2019-03-11T01:31:09.637Z,4.14
2019-03-11T01:31:50.191Z,4.19
2019-03-11T01:32:30.755Z,4.24
2019-03-11T01:33:11.312Z,4.14
2019-03-11T01:33:51.876Z,4.24
2019-03-11T01:34:32.436Z,4.2
2019-03-11T01:35:13.043Z,4.2
2019-03-11T01:35:53.613Z,4.3
2019-03-11T01:36:34.165Z,4.28
2019-03-11T01:37:14.753Z,4.23
2019-03-11T01:37:55.332Z,4.26
2019-03-11T01:38:35.904Z,4.22
2019-03-11T01:39:16.459Z,4.24
2019-03-11T01:39:57.012Z,4.2
2019-03-11T01:40:37.561Z,4.32
2019-03-11T01:41:18.120Z,4.23
2019-03-11T01:41:58.680Z,4.23
2019-03-11T01:42:39.231Z,4.22
2019-03-11T01:43:19.809Z,4.28
2019-03-11T01:44:00.390Z,4.23
2019-03-11T01:44:40.955Z,4.26
2019-03-11T01:45:21.543Z,4.26
2019-03-11T01:46:02.109Z,4.24
2019-03-11T01:46:42.671Z,4.26
2019-03-11T01:47:23.244Z,4.24
2019-03-11T01:48:03.820Z,4.34
2019-03-11T01:48:44.368Z,4.35
2019-03-11T01:49:24.924Z,4.41
2019-03-11T01:50:05.494Z,4.34
2019-03-11T01:50:46.054Z,4.37
2019-03-11T01:51:26.629Z,4.35
2019-03-11T01:52:07.203Z,4.35
2019-03-11T01:52:47.763Z,4.34
2019-03-11T01:53:28.351Z,4.35
2019-03-11T01:54:08.911Z,4.32
2019-03-11T01:54:49.451Z,4.35
2019-03-11T01:55:30.018Z,4.35
2019-03-11T01:56:10.583Z,4.35
2019-03-11T01:56:51.167Z,4.34
2019-03-11T01:57:31.764Z,4.45
2019-03-11T01:58:12.351Z,4.45
2019-03-11T01:58:52.916Z,4.45
2019-03-11T01:59:33.463Z,4.44
2019-03-11T02:00:14.035Z,4.48
2019-03-11T02:00:54.589Z,4.42
2019-03-11T02:01:35.170Z,4.5
2019-03-11T02:02:15.717Z,4.55
2019-03-11T02:02:56.290Z,4.52
2019-03-11T02:03:36.861Z,4.55
2019-03-11T02:04:17.448Z,4.48
2019-03-11T02:04:58.019Z,4.49
2019-03-11T02:05:38.581Z,4.42
2019-03-11T02:06:19.160Z,4.4
2019-03-11T02:06:59.736Z,4.42
2019-03-11T02:07:40.313Z,4.42
2019-03-11T02:08:20.866Z,4.41
2019-03-11T02:09:01.444Z,4.4
2019-03-11T02:09:42.348Z,4.42
2019-03-11T02:10:22.895Z,4.41
2019-03-11T02:11:03.464Z,4.49
2019-03-11T02:11:44.015Z,4.41
2019-03-11T02:12:24.580Z,4.42
2019-03-11T02:13:05.118Z,4.4
2019-03-11T02:13:45.678Z,4.41
2019-03-11T02:14:26.238Z,4.44
2019-03-11T02:15:06.791Z,4.48
2019-03-11T02:15:47.353Z,4.4
2019-03-11T02:16:27.912Z,4.48
2019-03-11T02:17:08.473Z,4.38
2019-03-11T02:17:49.050Z,4.32
2019-03-11T02:18:29.648Z,4.37
2019-03-11T02:19:10.231Z,4.34
2019-03-11T02:19:50.815Z,4.37
2019-03-11T02:20:31.395Z,4.35
2019-03-11T02:21:12.008Z,4.32
2019-03-11T02:21:52.584Z,4.3
2019-03-11T02:22:33.117Z,4.24
2019-03-11T02:23:13.699Z,4.24
2019-03-11T02:23:54.255Z,4.23
2019-03-11T02:24:34.863Z,4.34
2019-03-11T02:25:15.429Z,4.34
2019-03-11T02:25:55.983Z,4.32
2019-03-11T02:26:36.538Z,4.24
2019-03-11T02:27:17.091Z,4.26
2019-03-11T02:27:57.641Z,4.2
2019-03-11T02:28:38.215Z,4.23
2019-03-11T02:29:18.764Z,4.26
2019-03-11T02:29:59.315Z,4.23
2019-03-11T02:30:39.884Z,4.2
2019-03-11T02:31:20.452Z,4.22
2019-03-11T02:32:01.053Z,4.16
2019-03-11T02:32:41.601Z,4.23
2019-03-11T02:33:22.154Z,4.2
2019-03-11T02:34:02.731Z,4.19
2019-03-11T02:34:43.301Z,4.23
2019-03-11T02:35:23.886Z,4.19
2019-03-11T02:36:04.439Z,4.17
2019-03-11T02:36:45.002Z,4.2
2019-03-11T02:37:25.554Z,4.17
2019-03-11T02:38:06.157Z,4.17
2019-03-11T02:38:46.723Z,4.19
2019-03-11T02:39:27.283Z,4.14
2019-03-11T02:40:07.880Z,4.13
2019-03-11T02:40:48.409Z,4.17
2019-03-11T02:41:28.981Z,4.14
2019-03-11T02:42:09.537Z,4.1
2019-03-11T02:42:50.140Z,4.12
2019-03-11T02:43:30.691Z,4.1
2019-03-11T02:44:11.286Z,4.13
2019-03-11T02:44:51.868Z,4.1
2019-03-11T02:45:32.453Z,4.13
2019-03-11T02:46:12.998Z,4.05
2019-03-11T02:46:53.565Z,4.06
2019-03-11T02:47:34.144Z,4.01
2019-03-11T02:48:14.731Z,4.08
2019-03-11T02:48:55.314Z,4.01
2019-03-11T02:49:35.870Z,4.04
2019-03-11T02:50:16.435Z,4.04
2019-03-11T02:50:56.993Z,4.02
2019-03-11T02:51:37.558Z,4.02
2019-03-11T02:52:18.107Z,4.08
2019-03-11T02:52:58.662Z,4.05
2019-03-11T02:53:39.239Z,4.02
2019-03-11T02:54:19.812Z,4.01
2019-03-11T02:55:00.452Z,4.02
2019-03-11T02:55:40.921Z,4.05
2019-03-11T02:56:21.470Z,4.01
2019-03-11T02:57:02.057Z,4.02
2019-03-11T02:57:42.630Z,3.94
2019-03-11T02:58:23.201Z,3.95
2019-03-11T02:59:03.769Z,3.99
2019-03-11T02:59:44.330Z,3.86
2019-03-11T03:00:24.912Z,3.99
2019-03-11T03:01:05.499Z,3.87
2019-03-11T03:01:46.105Z,3.86
2019-03-11T03:02:26.663Z,3.87
2019-03-11T03:03:07.232Z,3.86
2019-03-11T03:03:47.784Z,3.83
2019-03-11T03:04:28.348Z,3.87
2019-03-11T03:05:08.906Z,3.81
2019-03-11T03:05:49.490Z,3.83
2019-03-11T03:06:30.054Z,3.84
2019-03-11T03:07:10.625Z,3.84
2019-03-11T03:07:51.210Z,3.86
2019-03-11T03:08:31.787Z,3.83
2019-03-11T03:09:12.363Z,3.8
2019-03-11T03:09:53.479Z,3.78
2019-03-11T03:10:34.056Z,3.83
2019-03-11T03:11:14.598Z,3.81
2019-03-11T03:11:55.154Z,3.86
2019-03-11T03:12:35.727Z,3.83
2019-03-11T03:13:16.310Z,3.81
2019-03-11T03:13:56.856Z,3.78
2019-03-11T03:14:37.409Z,3.8
2019-03-11T03:15:17.980Z,3.73
2019-03-11T03:15:58.564Z,3.83
2019-03-11T03:16:39.123Z,3.84
2019-03-11T03:17:19.706Z,3.8
2019-03-11T03:18:00.248Z,3.81
2019-03-11T03:18:40.844Z,3.83
2019-03-11T03:19:21.385Z,3.83
2019-03-11T03:20:01.955Z,3.84
2019-03-11T03:20:42.521Z,3.88
2019-03-11T03:21:23.077Z,3.84
2019-03-11T03:22:03.665Z,3.88
2019-03-11T03:22:44.201Z,3.86
2019-03-11T03:23:24.778Z,3.88
2019-03-11T03:24:05.346Z,3.84
2019-03-11T03:24:45.893Z,3.86
2019-03-11T03:25:33.456Z,3.81
2019-03-11T03:26:07.006Z,3.81
2019-03-11T03:26:47.571Z,3.8
2019-03-11T03:27:28.127Z,3.87
2019-03-11T03:28:08.792Z,3.8
2019-03-11T03:28:49.228Z,3.83
2019-03-11T03:29:29.812Z,3.77
2019-03-11T03:30:10.393Z,3.83
2019-03-11T03:30:50.948Z,3.78
2019-03-11T03:31:31.538Z,3.77
2019-03-11T03:32:12.129Z,3.83
2019-03-11T03:32:52.697Z,3.84
2019-03-11T03:33:33.309Z,3.81
2019-03-11T03:34:13.881Z,3.8
2019-03-11T03:34:54.427Z,3.81
2019-03-11T03:35:35.015Z,3.8
2019-03-11T03:36:15.586Z,3.77
2019-03-11T03:36:56.142Z,3.8
2019-03-11T03:37:36.691Z,3.84
2019-03-11T03:38:29.308Z,3.81
2019-03-11T03:38:57.858Z,3.86
2019-03-11T03:39:38.407Z,3.86
2019-03-11T03:40:19.033Z,3.91
2019-03-11T03:40:59.578Z,3.84
2019-03-11T03:41:40.138Z,3.86
2019-03-11T03:42:20.698Z,3.91
2019-03-11T03:43:01.467Z,3.86
2019-03-11T03:43:41.887Z,3.88
2019-03-11T03:44:22.422Z,3.94
2019-03-11T03:45:02.992Z,3.86
2019-03-11T03:45:43.543Z,3.87
2019-03-11T03:46:24.119Z,3.84
2019-03-11T03:47:04.670Z,3.96
2019-03-11T03:47:45.226Z,3.96
2019-03-11T03:48:25.798Z,3.91
2019-03-11T03:49:06.354Z,4.01
2019-03-11T03:49:46.941Z,3.86
2019-03-11T03:50:27.581Z,3.83
2019-03-11T03:51:08.237Z,3.88
2019-03-11T03:51:48.838Z,3.95
2019-03-11T03:52:29.416Z,3.86
2019-03-11T03:53:09.972Z,3.84
2019-03-11T03:53:50.546Z,3.84
2019-03-11T03:54:31.117Z,3.88
2019-03-11T03:55:11.697Z,3.91
2019-03-11T03:55:52.267Z,3.86
2019-03-11T03:56:32.836Z,3.83
2019-03-11T03:57:13.369Z,3.88
2019-03-11T03:57:53.946Z,3.88
2019-03-11T03:58:34.533Z,3.92
2019-03-11T03:59:15.169Z,3.86
2019-03-11T03:59:55.754Z,3.87
2019-03-11T04:00:36.307Z,3.94
2019-03-11T04:01:16.886Z,3.86
2019-03-11T04:01:57.466Z,3.81
2019-03-11T04:02:38.026Z,3.84
2019-03-11T04:03:18.585Z,3.7
2019-03-11T04:03:59.149Z,3.88
2019-03-11T04:04:39.712Z,3.8
2019-03-11T04:05:20.321Z,3.84
2019-03-11T04:06:00.882Z,3.8
2019-03-11T04:06:41.469Z,3.8
2019-03-11T04:07:22.051Z,3.81
2019-03-11T04:08:02.597Z,3.8
2019-03-11T04:08:43.148Z,3.87
2019-03-11T04:09:23.712Z,3.76
2019-03-11T04:10:04.259Z,3.88
2019-03-11T04:10:44.834Z,3.84
2019-03-11T04:11:25.389Z,3.81
2019-03-11T04:12:05.928Z,3.83
2019-03-11T04:12:46.481Z,3.86
2019-03-11T04:13:27.050Z,3.86
2019-03-11T04:14:07.754Z,3.86
2019-03-11T04:14:48.269Z,3.83
2019-03-11T04:15:28.840Z,3.83
2019-03-11T04:16:09.377Z,3.74
2019-03-11T04:16:49.925Z,3.83
2019-03-11T04:17:30.494Z,3.78
2019-03-11T04:18:11.071Z,3.78
2019-03-11T04:18:51.629Z,3.84
2019-03-11T04:19:32.205Z,3.84
2019-03-11T04:20:12.785Z,3.77
2019-03-11T04:20:53.328Z,3.76
2019-03-11T04:21:33.884Z,3.8
2019-03-11T04:22:14.453Z,3.86
2019-03-11T04:22:55.014Z,3.77
2019-03-11T04:23:35.602Z,3.78
2019-03-11T04:24:16.169Z,3.86
2019-03-11T04:24:56.736Z,3.81
2019-03-11T04:25:37.287Z,3.8
2019-03-11T04:26:17.850Z,3.8
2019-03-11T04:26:58.499Z,3.86
2019-03-11T04:27:39.079Z,3.81
2019-03-11T04:28:19.646Z,3.86
2019-03-11T04:29:00.223Z,3.76
2019-03-11T04:29:40.781Z,3.86
2019-03-11T04:30:21.357Z,3.87
2019-03-11T04:31:01.933Z,3.88
2019-03-11T04:31:42.502Z,3.83
2019-03-11T04:32:23.449Z,3.83
2019-03-11T04:33:04.013Z,3.94
2019-03-11T04:33:44.566Z,3.86
2019-03-11T04:34:25.110Z,3.81
2019-03-11T04:35:05.674Z,3.81
2019-03-11T04:35:46.262Z,3.81
2019-03-11T04:36:26.849Z,3.77
2019-03-11T04:37:07.409Z,3.84
2019-03-11T04:37:47.966Z,3.81
2019-03-11T04:38:28.535Z,3.78
2019-03-11T04:39:09.085Z,3.78
2019-03-11T04:39:49.714Z,3.78
2019-03-11T04:40:30.271Z,3.8
2019-03-11T04:41:10.827Z,3.78
2019-03-11T04:41:51.398Z,3.78
2019-03-11T04:42:31.983Z,3.83
2019-03-11T04:43:12.552Z,3.83
2019-03-11T04:43:53.184Z,3.77
2019-03-11T04:44:33.738Z,3.8
2019-03-11T04:45:14.329Z,3.73
2019-03-11T04:45:54.875Z,3.8
2019-03-11T04:46:35.446Z,3.8
2019-03-11T04:47:16.035Z,3.78
2019-03-11T04:47:56.610Z,3.83
2019-03-11T04:48:37.166Z,3.78
2019-03-11T04:49:17.729Z,3.81
2019-03-11T04:50:00.105Z,3.78
2019-03-11T04:50:38.864Z,3.76
2019-03-11T04:51:19.429Z,3.77
2019-03-11T04:51:59.999Z,3.76
2019-03-11T04:52:40.554Z,3.78
2019-03-11T04:53:21.121Z,3.8
2019-03-11T04:54:01.672Z,3.77
2019-03-11T04:54:42.237Z,3.7
2019-03-11T04:55:22.846Z,3.76
2019-03-11T04:56:03.350Z,3.76
2019-03-11T04:56:43.941Z,3.76
2019-03-11T04:57:24.505Z,3.8
2019-03-11T04:58:05.090Z,3.78
2019-03-11T04:58:45.634Z,3.83
2019-03-11T04:59:26.195Z,3.78
2019-03-11T05:00:06.746Z,3.76
2019-03-11T05:00:47.304Z,3.83
2019-03-11T05:01:27.877Z,3.83
2019-03-11T05:02:08.497Z,3.77
2019-03-11T05:02:49.102Z,3.8
2019-03-11T05:03:29.693Z,3.8
2019-03-11T05:04:10.265Z,3.78
2019-03-11T05:04:50.837Z,3.8
2019-03-11T05:05:31.396Z,3.8
2019-03-11T05:06:11.960Z,3.76
2019-03-11T05:06:52.513Z,3.87
2019-03-11T05:07:33.101Z,3.78
2019-03-11T05:08:13.644Z,3.87
2019-03-11T05:08:54.196Z,3.88
2019-03-11T05:09:35.417Z,3.91
2019-03-11T05:10:16.536Z,3.91
2019-03-11T05:10:56.564Z,3.83
2019-03-11T05:11:37.119Z,3.88
2019-03-11T05:12:17.661Z,3.96
2019-03-11T05:12:58.222Z,3.94
2019-03-11T05:13:38.815Z,3.94
2019-03-11T05:14:19.405Z,3.94
2019-03-11T05:14:59.991Z,3.92
2019-03-11T05:15:40.552Z,3.91
2019-03-11T05:16:21.116Z,3.95
2019-03-11T05:17:01.651Z,3.99
2019-03-11T05:17:42.208Z,3.92
2019-03-11T05:18:22.747Z,3.96
2019-03-11T05:19:03.402Z,3.95
2019-03-11T05:19:43.937Z,3.95
2019-03-11T05:20:24.557Z,4.02
2019-03-11T05:21:05.131Z,3.8
2019-03-11T05:21:45.697Z,3.84
2019-03-11T05:22:26.232Z,3.96
2019-03-11T05:23:06.804Z,3.99
2019-03-11T05:23:47.357Z,3.8
2019-03-11T05:24:27.918Z,3.98
2019-03-11T05:25:08.525Z,3.94
2019-03-11T05:25:49.092Z,3.96
2019-03-11T05:26:29.647Z,3.92
2019-03-11T05:27:10.191Z,3.92
2019-03-11T05:27:50.749Z,3.88
2019-03-11T05:28:31.288Z,3.83
2019-03-11T05:29:11.854Z,3.96
2019-03-11T05:29:52.395Z,3.8
2019-03-11T05:30:32.959Z,3.86
2019-03-11T05:31:13.530Z,3.86
2019-03-11T05:31:54.080Z,3.95
2019-03-11T05:32:34.693Z,3.94
2019-03-11T05:33:15.304Z,3.92
2019-03-11T05:33:55.860Z,3.91
2019-03-11T05:34:36.451Z,3.94
2019-03-11T05:35:17.023Z,3.99
2019-03-11T05:35:57.560Z,3.99
2019-03-11T05:36:38.110Z,3.99
2019-03-11T05:37:18.661Z,3.96
2019-03-11T05:37:59.215Z,3.99
2019-03-11T05:38:39.781Z,3.98
2019-03-11T05:39:20.352Z,3.94
2019-03-11T05:40:00.884Z,3.88
2019-03-11T05:40:41.446Z,3.95
2019-03-11T05:41:22.010Z,3.95
2019-03-11T05:42:02.576Z,3.99
2019-03-11T05:42:43.237Z,4.01
2019-03-11T05:43:23.787Z,4.06
2019-03-11T05:44:04.369Z,4.04
2019-03-11T05:44:44.924Z,4.05
2019-03-11T05:45:25.478Z,3.98
2019-03-11T05:46:06.037Z,4.02
2019-03-11T05:46:46.595Z,4.05
2019-03-11T05:47:27.179Z,3.98
2019-03-11T05:48:07.739Z,4.02
2019-03-11T05:48:48.300Z,4.06
2019-03-11T05:49:28.864Z,4.04
2019-03-11T05:50:09.424Z,4.05
2019-03-11T05:50:49.991Z,4.05
2019-03-11T05:51:31.659Z,4.08
2019-03-11T05:52:11.100Z,4.05
2019-03-11T05:52:51.663Z,4.14
2019-03-11T05:53:32.234Z,4.13
2019-03-11T05:54:12.796Z,4.08
2019-03-11T05:54:53.438Z,4.1
2019-03-11T05:55:34.001Z,4.04
2019-03-11T05:56:14.560Z,4.06
2019-03-11T05:56:55.119Z,4.12
2019-03-11T05:57:35.697Z,4.04
2019-03-11T05:58:16.267Z,4.04
2019-03-11T05:58:56.809Z,4.01
2019-03-11T05:59:37.373Z,4.1
2019-03-11T06:00:17.961Z,4.02
2019-03-11T06:00:58.551Z,4.04
2019-03-11T06:01:39.081Z,4.08
2019-03-11T06:02:19.656Z,4.13
2019-03-11T06:03:00.210Z,4.12
2019-03-11T06:03:40.760Z,4.1
2019-03-11T06:04:21.315Z,4.13
2019-03-11T06:05:01.886Z,4.13
2019-03-11T06:05:42.495Z,4.12
2019-03-11T06:06:23.053Z,4.05
2019-03-11T06:07:03.654Z,4.1
2019-03-11T06:07:44.231Z,4.12
2019-03-11T06:08:24.806Z,4.02
2019-03-11T06:09:05.421Z,4.05
2019-03-11T06:09:46.465Z,4.08
2019-03-11T06:10:27.045Z,4.06
2019-03-11T06:11:07.634Z,4.04
2019-03-11T06:11:48.185Z,4.05
2019-03-11T06:12:28.789Z,4.2
2019-03-11T06:13:09.483Z,4.05
2019-03-11T06:13:50.071Z,4.22
2019-03-11T06:14:30.691Z,4.14
2019-03-11T06:15:11.244Z,4.2
2019-03-11T06:15:52.063Z,4.17
2019-03-11T06:16:32.898Z,4.14
2019-03-11T06:17:14.668Z,4.22
2019-03-11T06:17:55.280Z,4.19
2019-03-11T06:18:35.843Z,4.2
2019-03-11T06:19:16.439Z,4.17
2019-03-11T06:19:57.116Z,4.19
2019-03-11T06:20:37.694Z,4.17
2019-03-11T06:21:18.255Z,4.08
2019-03-11T06:21:58.927Z,4.2
2019-03-11T06:22:39.971Z,4.28
2019-03-11T06:23:20.554Z,4.16
2019-03-11T06:24:01.855Z,4.13
2019-03-11T06:24:43.346Z,4.19
2019-03-11T06:25:24.566Z,4.2
2019-03-11T06:26:05.884Z,4.08
2019-03-11T06:26:47.097Z,4.24
2019-03-11T06:27:28.438Z,4.16
2019-03-11T06:28:09.761Z,4.17
2019-03-11T06:28:50.954Z,4.17
2019-03-11T06:29:33.702Z,4.22
2019-03-11T06:30:15.091Z,4.2
2019-03-11T06:30:56.265Z,4.22
2019-03-11T06:31:37.520Z,4.19
2019-03-11T06:32:18.525Z,4.22
2019-03-11T06:32:59.519Z,4.17
2019-03-11T06:33:40.315Z,4.17
2019-03-11T06:34:21.261Z,4.24
2019-03-11T06:35:02.041Z,4.2
2019-03-11T06:35:42.850Z,4.23
2019-03-11T06:36:23.807Z,4.22
2019-03-11T06:37:04.762Z,4.31
2019-03-11T06:37:45.503Z,4.2
2019-03-11T06:38:26.373Z,4.26
2019-03-11T06:39:09.540Z,4.24
2019-03-11T06:39:50.362Z,4.24
2019-03-11T06:40:31.364Z,4.23
2019-03-11T06:41:12.118Z,4.19
2019-03-11T06:41:52.794Z,4.26
2019-03-11T06:42:33.569Z,4.24
2019-03-11T06:43:14.317Z,4.26
2019-03-11T06:43:55.112Z,4.26
2019-03-11T06:44:36.222Z,4.2
2019-03-11T06:45:17.188Z,4.22
2019-03-11T06:45:58.037Z,4.22
2019-03-11T06:46:39.066Z,4.19
2019-03-11T06:47:20.990Z,4.24
2019-03-11T06:48:01.838Z,4.22
2019-03-11T06:48:45.208Z,4.19
2019-03-11T06:49:25.984Z,4.24
2019-03-11T06:50:06.722Z,4.32
2019-03-11T06:50:47.521Z,4.34
2019-03-11T06:51:28.262Z,4.32
2019-03-11T06:52:08.996Z,4.34
2019-03-11T06:52:49.741Z,4.35
2019-03-11T06:53:30.478Z,4.45
2019-03-11T06:54:11.552Z,4.35
2019-03-11T06:54:59.751Z,4.37
2019-03-11T06:55:40.503Z,4.35
2019-03-11T06:56:22.826Z,4.35
2019-03-11T06:57:03.636Z,4.38
2019-03-11T06:57:44.331Z,4.35
2019-03-11T06:58:25.990Z,4.4
2019-03-11T06:59:06.711Z,4.38
2019-03-11T06:59:47.581Z,4.49
2019-03-11T07:00:28.425Z,4.38
2019-03-11T07:01:09.265Z,4.4
2019-03-11T07:01:49.973Z,4.37
2019-03-11T07:02:30.705Z,4.42
2019-03-11T07:03:11.494Z,4.48
2019-03-11T07:03:52.202Z,4.4
2019-03-11T07:04:32.940Z,4.4
2019-03-11T07:05:19.665Z,4.42
2019-03-11T07:05:54.463Z,4.4
2019-03-11T07:06:35.063Z,4.52
2019-03-11T07:07:16.885Z,4.5
2019-03-11T07:07:57.534Z,4.6
2019-03-11T07:08:38.438Z,4.5
2019-03-11T07:09:19.093Z,4.56
2019-03-11T07:09:59.934Z,4.44
2019-03-11T07:10:40.696Z,4.48
2019-03-11T07:11:21.466Z,4.4
2019-03-11T07:12:02.221Z,4.41
2019-03-11T07:12:42.966Z,4.34
2019-03-11T07:13:23.784Z,4.44
2019-03-11T07:14:04.336Z,4.44
2019-03-11T07:14:44.966Z,4.5
2019-03-11T07:15:25.476Z,4.52
2019-03-11T07:16:06.038Z,4.52
2019-03-11T07:16:46.585Z,4.56
2019-03-11T07:17:27.318Z,4.55
2019-03-11T07:18:07.859Z,4.58
2019-03-11T07:18:48.433Z,4.45
2019-03-11T07:19:28.998Z,4.5
2019-03-11T07:20:09.584Z,4.45
2019-03-11T07:20:50.169Z,4.44
2019-03-11T07:21:30.724Z,4.56
2019-03-11T07:22:11.279Z,4.52
2019-03-11T07:22:51.991Z,4.53
2019-03-11T07:23:32.574Z,4.59
2019-03-11T07:24:13.392Z,4.55
2019-03-11T07:24:53.951Z,4.52
2019-03-11T07:25:34.582Z,4.45
2019-03-11T07:26:15.134Z,4.52
2019-03-11T07:26:55.790Z,4.42
2019-03-11T07:27:36.405Z,4.42
2019-03-11T07:28:17.072Z,4.44
2019-03-11T07:28:58.319Z,4.63
2019-03-11T07:29:39.116Z,4.73
2019-03-11T07:30:19.956Z,4.93
2019-03-11T07:31:00.600Z,5.26
2019-03-11T07:31:41.166Z,5.46
2019-03-11T07:32:21.768Z,5.84
2019-03-11T07:33:02.420Z,6.09
2019-03-11T07:33:43.088Z,6.27
2019-03-11T07:34:23.773Z,6.45
2019-03-11T07:35:08.144Z,6.72
2019-03-11T07:35:45.028Z,6.84
2019-03-11T07:36:25.607Z,7.02
2019-03-11T07:37:06.271Z,7.06
2019-03-11T07:37:46.743Z,7.17
2019-03-11T07:38:27.295Z,7.25
2019-03-11T07:39:07.858Z,7.32
2019-03-11T07:39:48.432Z,7.4
2019-03-11T07:40:30.392Z,7.53
2019-03-11T07:41:09.668Z,7.56
2019-03-11T07:41:50.411Z,7.69
2019-03-11T07:42:31.578Z,7.76
2019-03-11T07:43:12.277Z,7.77
2019-03-11T07:43:52.845Z,7.77
2019-03-11T07:44:33.403Z,7.77
2019-03-11T07:45:13.970Z,7.73
2019-03-11T07:45:54.712Z,7.7
2019-03-11T07:46:35.298Z,7.66
2019-03-11T07:47:15.870Z,7.87
2019-03-11T07:47:56.501Z,7.95
2019-03-11T07:48:37.224Z,8.08
2019-03-11T07:49:17.806Z,8.2
2019-03-11T07:49:58.377Z,8.27
2019-03-11T07:50:38.926Z,8.27
2019-03-11T07:51:19.532Z,8.26
2019-03-11T07:52:02.484Z,8.12
2019-03-11T07:52:40.684Z,7.94
2019-03-11T07:53:21.270Z,7.83
2019-03-11T07:54:01.833Z,7.61
2019-03-11T07:54:42.433Z,7.42
2019-03-11T07:55:23.092Z,7.29
2019-03-11T07:56:04.316Z,7.28
2019-03-11T07:56:44.958Z,7.07
2019-03-11T07:57:25.561Z,6.87
2019-03-11T07:58:06.142Z,6.79
2019-03-11T07:58:46.757Z,6.74
2019-03-11T07:59:27.339Z,6.7
2019-03-11T08:00:07.949Z,6.52
2019-03-11T08:00:53.606Z,6.41
2019-03-11T08:01:29.072Z,6.31
2019-03-11T08:02:09.678Z,6.26
2019-03-11T08:02:50.273Z,6.16
2019-03-11T08:03:30.838Z,6.04
2019-03-11T08:04:11.380Z,6.02
2019-03-11T08:04:52.014Z,5.94
2019-03-11T08:05:32.603Z,5.97
2019-03-11T08:06:18.322Z,5.9
2019-03-11T08:06:53.878Z,5.9
2019-03-11T08:07:34.432Z,5.79
2019-03-11T08:08:15.014Z,5.69
2019-03-11T08:08:55.577Z,5.71
2019-03-11T08:09:38.026Z,5.66
2019-03-11T08:10:17.208Z,5.56
2019-03-11T08:10:57.787Z,5.65
2019-03-11T08:11:38.340Z,5.48
2019-03-11T08:12:18.923Z,5.54
2019-03-11T08:12:59.480Z,5.47
2019-03-11T08:13:40.036Z,5.41
2019-03-11T08:14:20.617Z,5.47
2019-03-11T08:15:01.181Z,5.53
2019-03-11T08:15:41.757Z,5.47
2019-03-11T08:16:22.320Z,5.54
2019-03-11T08:17:02.875Z,5.54
2019-03-11T08:17:43.449Z,5.53
2019-03-11T08:18:34.343Z,5.46
2019-03-11T08:19:04.567Z,5.47
2019-03-11T08:19:45.166Z,5.39
2019-03-11T08:20:25.759Z,5.43
2019-03-11T08:21:06.295Z,5.41
2019-03-11T08:21:46.978Z,5.36
2019-03-11T08:22:27.550Z,5.46
2019-03-11T08:23:08.128Z,5.47
2019-03-11T08:23:48.718Z,5.39
2019-03-11T08:24:29.344Z,5.39
2019-03-11T08:25:09.929Z,5.43
2019-03-11T08:25:50.483Z,5.44
2019-03-11T08:26:31.083Z,5.41
2019-03-11T08:27:11.645Z,5.46
2019-03-11T08:27:52.182Z,5.33
2019-03-11T08:28:32.880Z,5.36
2019-03-11T08:29:13.452Z,5.44
2019-03-11T08:29:54.024Z,5.41
2019-03-11T08:30:34.610Z,5.43
2019-03-11T08:31:15.172Z,5.38
2019-03-11T08:31:55.782Z,5.38
2019-03-11T08:32:36.341Z,5.35
2019-03-11T08:33:16.910Z,5.36
2019-03-11T08:33:57.465Z,5.32
2019-03-11T08:34:38.065Z,5.33
2019-03-11T08:35:18.629Z,5.3
2019-03-11T08:35:59.187Z,5.35
2019-03-11T08:36:39.748Z,5.35
2019-03-11T08:37:20.307Z,5.33
2019-03-11T08:38:04.763Z,5.39
2019-03-11T08:38:41.495Z,5.41
2019-03-11T08:39:22.039Z,5.28
2019-03-11T08:40:02.587Z,5.38
2019-03-11T08:40:43.211Z,5.44
2019-03-11T08:41:23.764Z,5.39
2019-03-11T08:42:04.333Z,5.33
2019-03-11T08:42:44.902Z,5.41
2019-03-11T08:43:25.497Z,5.47
2019-03-11T08:44:06.101Z,5.43
2019-03-11T08:44:46.756Z,5.41
2019-03-11T08:45:27.402Z,5.48
2019-03-11T08:46:07.980Z,5.41
2019-03-11T08:46:48.544Z,5.46
2019-03-11T08:47:29.196Z,5.43
2019-03-11T08:48:09.780Z,5.43
2019-03-11T08:48:50.340Z,5.38
2019-03-11T08:49:30.910Z,5.47
2019-03-11T08:50:11.463Z,5.33
2019-03-11T08:50:52.007Z,5.39
2019-03-11T08:51:32.583Z,5.39
2019-03-11T08:52:13.139Z,5.35
2019-03-11T08:52:53.693Z,5.47
2019-03-11T08:53:34.229Z,5.39
2019-03-11T08:54:14.839Z,5.43
2019-03-11T08:54:55.388Z,5.41
2019-03-11T08:55:35.962Z,5.46
2019-03-11T08:56:16.730Z,5.38
2019-03-11T08:56:57.305Z,5.48
2019-03-11T08:57:40.020Z,5.43
2019-03-11T08:58:18.471Z,5.39
2019-03-11T08:58:59.037Z,5.41
2019-03-11T08:59:39.603Z,5.43
2019-03-11T09:00:20.153Z,5.41
2019-03-11T09:01:00.703Z,5.53
2019-03-11T09:01:41.323Z,5.48
2019-03-11T09:02:21.909Z,5.53
2019-03-11T09:03:02.513Z,5.53